Time;durP1;ratioP1;P1;durP2;ratioP2;P2;SDS_P1;SDS_P2;PMS_P1;PMS_P2;Temp;Humidity;BMP_temperature;BMP_pressure;BME280_temperature;BME280_humidity;BME280_pressure;Samples;Min_cycle;Max_cycle;Signal;HPM_P1;HPM_P2
2022/05/02 00:00:09;;;;;;;3.95;3.45;;;;;;;13.18;91.72;98475.19;6258147;22;20157;-56
2022/05/02 00:02:35;;;;;;;5.28;4.20;;;;;;;13.09;92.29;98472.50;6256406;22;20597;-55
2022/05/02 00:05:01;;;;;;;5.68;3.60;;;;;;;13.20;92.09;98467.28;6260238;22;20184;-56
2022/05/02 00:07:26;;;;;;;5.75;4.40;;;;;;;13.16;92.35;98463.28;6269149;22;20500;-56
2022/05/02 00:09:52;;;;;;;4.63;3.35;;;;;;;13.37;90.17;98461.59;6269154;22;20155;-56
2022/05/02 00:12:17;;;;;;;4.63;3.28;;;;;;;13.07;93.46;98456.22;6267519;22;20204;-56
2022/05/02 00:14:43;;;;;;;4.20;3.05;;;;;;;13.13;93.64;98458.31;6269250;22;20593;-56
2022/05/02 00:17:09;;;;;;;3.50;3.20;;;;;;;12.98;95.39;98455.16;6269533;22;20193;-56
2022/05/02 00:19:34;;;;;;;7.65;3.40;;;;;;;13.04;95.25;98456.44;6267598;22;20510;-56
2022/05/02 00:22:00;;;;;;;6.75;3.65;;;;;;;13.07;95.10;98448.41;6255168;22;20560;-56
2022/05/02 00:24:25;;;;;;;8.23;3.63;;;;;;;12.84;97.36;98449.34;6257481;22;20148;-56
2022/05/02 00:26:50;;;;;;;3.22;2.92;;;;;;;12.72;98.77;98445.09;6266569;22;20152;-56
2022/05/02 00:29:16;;;;;;;4.10;3.80;;;;;;;12.82;97.99;98443.41;6270964;22;20159;-56
2022/05/02 00:31:41;;;;;;;7.15;4.07;;;;;;;12.77;98.75;98437.78;6270912;22;20537;-56
2022/05/02 00:34:07;;;;;;;5.70;3.70;;;;;;;12.69;99.47;98438.34;6270786;22;20475;-56
2022/05/02 00:36:32;;;;;;;4.47;3.80;;;;;;;12.50;100.00;98442.47;6270788;22;20144;-56
2022/05/02 00:38:58;;;;;;;6.15;3.63;;;;;;;12.60;100.00;98435.63;6270538;22;20144;-56
2022/05/02 00:41:25;;;;;;;4.10;3.70;;;;;;;12.44;100.00;98435.94;6262765;22;20456;-56
2022/05/02 00:43:51;;;;;;;6.68;3.42;;;;;;;12.14;100.00;98424.47;6255593;22;20197;-55
2022/05/02 00:46:21;;;;;;;4.15;3.75;;;;;;;12.59;100.00;98433.97;6259714;22;20610;-55
2022/05/02 00:48:47;;;;;;;6.15;4.30;;;;;;;12.96;96.75;98430.25;6270564;22;20144;-56
2022/05/02 00:51:14;;;;;;;4.40;3.50;;;;;;;13.21;94.29;98427.38;6270608;22;20155;-56
2022/05/02 00:53:40;;;;;;;5.70;3.58;;;;;;;13.10;93.91;98432.56;6270681;22;20159;-56
2022/05/02 00:56:08;;;;;;;5.07;4.03;;;;;;;12.78;96.88;98432.44;6270867;22;20152;-56
2022/05/02 00:58:35;;;;;;;7.13;3.90;;;;;;;12.72;98.12;98438.09;6270606;22;20145;-56
2022/05/02 01:01:02;;;;;;;4.18;3.35;;;;;;;13.02;95.83;98437.56;6270604;22;20149;-56
2022/05/02 01:03:28;;;;;;;3.58;3.28;;;;;;;12.98;94.77;98443.91;6258289;22;20824;-55
2022/05/02 01:08:38;;;;;;;6.32;3.15;;;;;;;12.67;97.05;98439.41;6265617;22;20175;-56
2022/05/02 01:11:03;;;;;;;3.40;3.05;;;;;;;12.51;98.10;98439.75;6270484;22;20152;-56
2022/05/02 01:13:43;;;;;;;3.72;3.42;;;;;;;12.36;99.83;98445.28;6270830;22;20594;-56
2022/05/02 01:16:17;;;;;;;5.38;3.42;;;;;;;12.08;100.00;98430.94;6270108;22;20180;-56
2022/05/02 01:18:44;;;;;;;3.65;3.35;;;;;;;12.31;100.00;98427.44;6270887;22;20203;-56
2022/05/02 01:21:16;;;;;;;5.50;4.03;;;;;;;12.13;100.00;98430.59;6270317;22;20151;-56
2022/05/02 01:23:43;;;;;;;7.15;3.80;;;;;;;12.51;99.00;98425.94;6263323;22;20153;-56
2022/05/02 01:26:09;;;;;;;4.03;3.60;;;;;;;12.03;100.00;98435.63;6257550;22;20498;-56
2022/05/02 01:28:46;;;;;;;5.25;3.50;;;;;;;12.16;100.00;98425.16;6259821;22;20213;-55
2022/05/02 01:31:12;;;;;;;8.27;3.47;;;;;;;12.00;100.00;98427.25;6270435;22;20148;-55
2022/05/02 01:33:38;;;;;;;3.72;3.35;;;;;;;12.31;100.00;98416.25;6270560;22;20160;-56
2022/05/02 01:36:04;;;;;;;4.38;3.95;;;;;;;12.51;98.62;98418.16;6270160;22;20499;-55
2022/05/02 01:38:30;;;;;;;4.82;3.63;;;;;;;12.26;99.55;98408.00;6270105;22;20159;-56
2022/05/02 01:40:55;;;;;;;5.95;4.13;;;;;;;12.12;100.00;98405.59;6270509;22;20152;-56
2022/05/02 01:43:21;;;;;;;4.03;3.63;;;;;;;12.12;100.00;98415.97;6270198;22;20585;-55
2022/05/02 01:45:46;;;;;;;4.95;3.67;;;;;;;12.10;100.00;98405.72;6257621;22;20555;-56
2022/05/02 01:48:12;;;;;;;5.43;3.95;;;;;;;11.77;100.00;98402.19;6257565;22;20186;-56
2022/05/02 01:50:37;;;;;;;8.25;4.07;;;;;;;11.66;100.00;98399.53;6264235;22;20586;-55
2022/05/02 01:53:03;;;;;;;5.18;4.05;;;;;;;11.61;100.00;98394.69;6270152;22;20148;-56
2022/05/02 01:55:28;;;;;;;7.53;3.88;;;;;;;11.66;100.00;98390.00;6270019;22;20155;-55
2022/05/02 01:57:54;;;;;;;6.20;3.97;;;;;;;11.41;100.00;98386.69;6269848;22;20153;-56
2022/05/02 02:00:19;;;;;;;6.72;4.65;;;;;;;11.32;100.00;98384.78;6270240;22;20223;-56
2022/05/02 02:02:45;;;;;;;4.65;4.00;;;;;;;11.39;100.00;98383.41;6270045;22;20149;-56
2022/05/02 02:07:55;;;;;;;8.25;4.28;;;;;;;11.24;100.00;98379.31;6256607;22;20146;-55
2022/05/02 02:10:20;;;;;;;4.85;4.28;;;;;;;11.16;100.00;98376.44;6258595;22;20152;-56
2022/05/02 02:12:46;;;;;;;4.63;4.20;;;;;;;11.49;100.00;98372.25;6267926;22;20172;-56
2022/05/02 02:15:14;;;;;;;5.00;4.57;;;;;;;11.16;100.00;98360.91;6269633;22;20182;-55
2022/05/02 02:17:44;;;;;;;6.35;4.93;;;;;;;11.13;100.00;98361.94;6268115;22;20535;-55
2022/05/02 02:20:11;;;;;;;6.88;5.13;;;;;;;11.26;100.00;98364.50;6269787;22;20156;-56
2022/05/02 02:22:37;;;;;;;8.45;5.63;;;;;;;10.77;100.00;98355.94;6269947;22;20607;-56
2022/05/02 02:25:04;;;;;;;5.65;4.75;;;;;;;10.80;100.00;98359.16;6269274;22;20177;-55
2022/05/02 02:27:31;;;;;;;5.68;4.78;;;;;;;10.78;100.00;98348.09;6257408;22;20240;-55
2022/05/02 02:29:57;;;;;;;5.80;5.00;;;;;;;10.71;100.00;98351.22;6257064;22;20163;-56
2022/05/02 02:32:22;;;;;;;5.95;4.30;;;;;;;10.61;100.00;98351.03;6259823;22;20501;-55
2022/05/02 02:34:48;;;;;;;6.38;5.03;;;;;;;10.38;100.00;98356.97;6269683;22;20140;-56
2022/05/02 02:37:13;;;;;;;6.38;4.72;;;;;;;10.46;100.00;98362.41;6269613;22;20213;-56
2022/05/02 02:39:39;;;;;;;6.32;4.85;;;;;;;10.53;100.00;98360.25;6267834;22;20178;-55
2022/05/02 02:42:05;;;;;;;5.35;4.85;;;;;;;10.58;100.00;98347.81;6269930;22;20587;-56
2022/05/02 02:44:30;;;;;;;5.43;4.88;;;;;;;10.31;100.00;98349.72;6269647;22;20482;-55
2022/05/02 02:46:56;;;;;;;8.10;5.28;;;;;;;10.12;100.00;98357.06;6269416;22;20209;-56
2022/05/02 02:49:21;;;;;;;7.88;4.65;;;;;;;10.02;100.00;98362.00;6255525;22;20701;-56
2022/05/02 02:51:48;;;;;;;7.32;5.20;;;;;;;10.29;100.00;98361.94;6258096;22;20148;-55
2022/05/02 02:54:13;;;;;;;5.53;5.03;;;;;;;10.24;100.00;98359.66;6265291;22;20218;-55
2022/05/02 02:56:39;;;;;;;8.40;5.05;;;;;;;10.13;100.00;98363.91;6269407;22;20598;-55
2022/05/02 02:59:04;;;;;;;6.63;5.60;;;;;;;10.29;100.00;98361.94;6267998;22;20195;-55
2022/05/02 03:01:30;;;;;;;6.47;5.60;;;;;;;10.48;100.00;98364.91;6269578;22;20153;-56
2022/05/02 03:03:56;;;;;;;6.25;4.60;;;;;;;10.71;100.00;98369.31;6269882;22;20155;-55
2022/05/02 03:06:21;;;;;;;5.82;4.90;;;;;;;10.65;100.00;98370.59;6268183;22;20180;-55
2022/05/02 03:08:47;;;;;;;5.35;4.70;;;;;;;10.61;100.00;98366.56;6264247;22;20167;-56
2022/05/02 03:11:13;;;;;;;6.35;4.80;;;;;;;10.57;100.00;98369.47;6256058;22;20163;-55
2022/05/02 03:13:38;;;;;;;9.00;4.43;;;;;;;10.31;100.00;98352.31;6258031;22;20153;-55
2022/05/02 03:16:04;;;;;;;5.75;4.82;;;;;;;10.59;100.00;98362.41;6268615;22;20253;-55
2022/05/02 03:18:31;;;;;;;5.25;4.28;;;;;;;10.59;100.00;98365.00;6269667;22;20152;-55
2022/05/02 03:20:57;;;;;;;6.97;4.95;;;;;;;10.49;100.00;98369.13;6269265;22;20155;-56
2022/05/02 03:23:23;;;;;;;6.22;3.92;;;;;;;10.30;100.00;98367.00;6269421;22;20148;-55
2022/05/02 03:25:48;;;;;;;7.47;5.07;;;;;;;10.36;100.00;98364.00;6269331;22;20179;-56
2022/05/02 03:28:14;;;;;;;8.73;4.78;;;;;;;10.31;100.00;98370.41;6269118;22;20152;-56
2022/05/02 03:30:40;;;;;;;6.68;4.25;;;;;;;10.38;100.00;98358.69;6258408;22;20672;-56
2022/05/02 03:33:05;;;;;;;5.40;4.82;;;;;;;10.45;100.00;98368.53;6256473;22;20167;-55
2022/05/02 03:35:31;;;;;;;4.95;4.55;;;;;;;10.50;100.00;98371.63;6261243;22;20144;-56
2022/05/02 03:37:57;;;;;;;5.03;4.53;;;;;;;10.73;100.00;98370.06;6267518;22;20156;-56
2022/05/02 03:40:23;;;;;;;4.40;4.00;;;;;;;10.95;100.00;98372.78;6267590;22;20193;-56
2022/05/02 03:42:48;;;;;;;5.15;4.38;;;;;;;11.05;100.00;98371.19;6269291;22;20224;-56
2022/05/02 03:45:13;;;;;;;6.47;4.72;;;;;;;11.03;100.00;98367.91;6269189;22;20177;-56
2022/05/02 03:47:39;;;;;;;6.03;4.60;;;;;;;11.16;100.00;98376.44;6269498;22;20159;-55
2022/05/02 03:50:05;;;;;;;3.50;3.20;;;;;;;11.18;100.00;98371.97;6269312;22;20538;-56
2022/05/02 03:52:30;;;;;;;3.83;3.53;;;;;;;11.17;100.00;98378.09;6254628;22;20156;-56
2022/05/02 03:54:56;;;;;;;4.80;3.80;;;;;;;11.07;100.00;98380.50;6257174;22;20149;-55
2022/05/02 03:57:22;;;;;;;4.38;3.92;;;;;;;11.03;100.00;98373.88;6265248;22;20609;-56
2022/05/02 03:59:47;;;;;;;5.57;4.07;;;;;;;10.81;100.00;98370.34;6269155;22;20684;-57
2022/05/02 04:02:14;;;;;;;5.25;4.13;;;;;;;10.79;100.00;98364.47;6270496;22;20152;-55
2022/05/02 04:04:39;;;;;;;4.47;4.07;;;;;;;10.68;100.00;98354.03;6268935;22;20911;-56
2022/05/02 04:07:05;;;;;;;4.10;3.63;;;;;;;10.70;100.00;98357.31;6270957;22;20151;-55
2022/05/02 04:09:30;;;;;;;3.80;3.50;;;;;;;10.82;100.00;98353.88;6271061;22;20180;-56
2022/05/02 04:11:56;;;;;;;4.57;4.18;;;;;;;10.82;100.00;98354.72;6265528;22;20149;-56
2022/05/02 04:14:22;;;;;;;5.18;4.10;;;;;;;10.93;100.00;98349.59;6255526;22;20156;-55
2022/05/02 04:16:49;;;;;;;6.30;4.15;;;;;;;11.13;100.00;98355.94;6258123;22;20700;-56
2022/05/02 04:19:15;;;;;;;4.38;3.90;;;;;;;11.12;100.00;98354.28;6270264;22;20149;-55
2022/05/02 04:21:42;;;;;;;4.63;4.22;;;;;;;11.18;100.00;98353.84;6270968;22;20167;-55
2022/05/02 04:24:07;;;;;;;6.10;4.22;;;;;;;11.26;100.00;98354.13;6269217;22;20590;-57
2022/05/02 04:26:33;;;;;;;4.03;3.72;;;;;;;11.40;100.00;98351.38;6270881;22;20614;-56
2022/05/02 04:28:59;;;;;;;4.20;3.90;;;;;;;11.51;100.00;98354.84;6270987;22;20152;-55
2022/05/02 04:31:24;;;;;;;3.90;3.60;;;;;;;11.69;100.00;98350.09;6270329;22;20155;-55
2022/05/02 04:33:50;;;;;;;4.93;3.95;;;;;;;11.80;100.00;98347.53;6258644;22;20762;-55
2022/05/02 04:36:16;;;;;;;7.57;4.05;;;;;;;12.09;100.00;98354.75;6258320;22;20677;-56
2022/05/02 04:38:41;;;;;;;4.50;3.30;;;;;;;12.15;100.00;98340.53;6262456;22;20598;-56
2022/05/02 04:41:07;;;;;;;3.92;3.60;;;;;;;12.24;100.00;98345.84;6268971;22;20152;-56
2022/05/02 04:43:32;;;;;;;6.22;4.30;;;;;;;12.37;100.00;98343.16;6270884;22;20153;-55
2022/05/02 04:45:57;;;;;;;4.47;3.85;;;;;;;12.65;100.00;98347.84;6270956;22;20181;-56
2022/05/02 04:48:24;;;;;;;4.32;3.85;;;;;;;12.88;98.97;98346.84;6270709;22;20152;-56
2022/05/02 04:50:49;;;;;;;4.32;3.25;;;;;;;13.05;96.79;98351.56;6270681;22;20187;-55
2022/05/02 04:53:15;;;;;;;4.95;3.38;;;;;;;13.23;94.41;98357.91;6270593;22;20148;-55
2022/05/02 04:55:40;;;;;;;3.63;3.33;;;;;;;13.30;93.92;98361.69;6256290;22;20152;-56
2022/05/02 04:58:06;;;;;;;4.10;3.67;;;;;;;13.39;92.98;98355.72;6258308;22;20152;-56
2022/05/02 05:00:31;;;;;;;4.65;3.25;;;;;;;13.35;93.26;98360.34;6266008;22;20145;-56
2022/05/02 05:02:57;;;;;;;4.07;3.47;;;;;;;13.46;92.56;98354.28;6269970;22;20178;-55
2022/05/02 05:05:22;;;;;;;4.97;2.92;;;;;;;13.51;91.98;98357.34;6270685;22;20586;-56
2022/05/02 05:07:48;;;;;;;5.15;3.72;;;;;;;13.41;92.77;98365.06;6270572;22;20607;-55
2022/05/02 05:10:14;;;;;;;4.93;3.45;;;;;;;13.48;92.83;98361.00;6270223;22;20148;-56
2022/05/02 05:12:58;;;;;;;5.57;3.72;;;;;;;13.52;92.15;98378.03;6269879;22;20408;-56
2022/05/02 05:19:00;;;;;;;4.00;3.38;;;;;;;13.71;90.15;98372.16;6257632;22;20287;-56
2022/05/02 05:21:38;;;;;;;5.75;3.53;;;;;;;13.86;90.39;98370.88;6265719;22;20141;-56
2022/05/02 05:24:09;;;;;;;4.82;3.22;;;;;;;13.99;89.36;98371.56;6270492;22;20139;-56
2022/05/02 05:27:08;;;;;;;4.07;3.55;;;;;;;13.86;88.24;98371.72;6270643;22;20191;-56
2022/05/02 05:29:45;;;;;;;4.32;3.97;;;;;;;13.89;89.64;98366.25;6270535;22;20500;-56
2022/05/02 05:32:29;;;;;;;10.13;3.80;;;;;;;14.01;89.44;98369.63;6270412;22;20202;-56
2022/05/02 05:35:04;;;;;;;3.50;3.20;;;;;;;14.19;89.11;98368.13;6270422;22;20156;-56
2022/05/02 05:37:48;;;;;;;4.65;4.20;;;;;;;14.23;88.15;98374.75;6257797;22;20183;-56
2022/05/02 05:40:29;;;;;;;5.15;3.95;;;;;;;14.21;83.65;98376.63;6258185;22;20215;-56
2022/05/02 05:43:04;;;;;;;9.02;4.63;;;;;;;14.09;84.24;98378.44;6266825;22;20147;-57
2022/05/02 05:45:41;;;;;;;5.40;4.85;;;;;;;14.13;84.17;98373.81;6270239;22;20350;-56
2022/05/02 05:48:13;;;;;;;6.82;4.30;;;;;;;14.30;82.59;98375.88;6270406;22;20562;-56
2022/05/02 05:50:51;;;;;;;4.75;4.15;;;;;;;14.34;82.77;98372.06;6270124;22;20168;-55
2022/05/02 05:53:32;;;;;;;5.63;4.43;;;;;;;14.37;82.71;98377.00;6270711;22;20490;-56
2022/05/02 05:56:25;;;;;;;7.63;4.88;;;;;;;14.36;83.15;98372.75;6270137;22;20136;-56
2022/05/02 05:59:05;;;;;;;5.38;4.88;;;;;;;14.41;83.22;98378.41;6255809;22;20156;-56
2022/05/02 06:01:49;;;;;;;8.55;5.90;;;;;;;14.52;83.53;98381.72;6258245;22;20143;-56
2022/05/02 06:04:16;;;;;;;9.90;6.43;;;;;;;14.67;83.55;98384.81;6267821;22;20144;-56
2022/05/02 06:06:41;;;;;;;8.15;5.57;;;;;;;14.85;82.99;98388.44;6269608;22;20172;-56
2022/05/02 06:09:10;;;;;;;6.78;5.60;;;;;;;14.81;82.57;98392.28;6270284;22;20667;-56
2022/05/02 06:11:39;;;;;;;7.40;4.88;;;;;;;14.90;82.94;98399.28;6269869;22;20658;-56
2022/05/02 06:14:05;;;;;;;5.13;4.50;;;;;;;14.89;81.63;98395.88;6269939;22;20213;-56
2022/05/02 06:19:28;;;;;;;8.13;4.25;;;;;;;15.15;79.49;98399.66;6259008;22;20688;-56
2022/05/02 06:21:55;;;;;;;9.43;3.67;;;;;;;14.97;79.87;98389.97;6257186;22;20137;-56
2022/05/02 06:24:26;;;;;;;4.82;4.13;;;;;;;15.03;79.96;98385.06;6263196;22;20637;-56
2022/05/02 06:26:52;;;;;;;4.85;3.60;;;;;;;14.98;79.92;98381.25;6269589;22;20475;-56
2022/05/02 06:29:18;;;;;;;8.75;4.30;;;;;;;15.17;79.38;98384.69;6269838;22;20151;-56
2022/05/02 06:31:50;;;;;;;8.20;4.45;;;;;;;14.97;80.42;98382.16;6269810;22;20155;-56
2022/05/02 06:34:21;;;;;;;4.47;4.07;;;;;;;15.16;79.39;98390.88;6269373;22;20143;-56
2022/05/02 06:37:00;;;;;;;4.50;4.10;;;;;;;15.12;80.53;98397.31;6269691;22;20141;-56
2022/05/02 06:39:53;;;;;;;8.45;4.18;;;;;;;14.83;81.28;98387.75;6264860;22;20617;-56
2022/05/02 06:42:39;;;;;;;9.85;4.85;;;;;;;14.97;81.89;98383.00;6256679;22;20141;-56
2022/05/02 06:45:41;;;;;;;5.75;5.20;;;;;;;15.03;80.03;98377.25;6261187;22;20171;-56
2022/05/02 06:48:09;;;;;;;6.30;4.95;;;;;;;15.02;79.44;98385.19;6269390;22;20700;-56
2022/05/02 06:50:38;;;;;;;5.97;5.03;;;;;;;15.04;79.25;98385.91;6269835;22;20552;-56
2022/05/02 06:53:31;;;;;;;5.10;4.55;;;;;;;14.88;79.71;98382.97;6269578;22;20524;-56
2022/05/02 06:56:15;;;;;;;6.35;4.70;;;;;;;14.87;80.29;98381.34;6269441;22;20124;-56
2022/05/02 06:58:50;;;;;;;5.43;3.97;;;;;;;14.89;79.36;98369.00;6269558;22;20133;-56
2022/05/02 07:01:50;;;;;;;4.50;4.10;;;;;;;14.84;79.66;98365.97;6259601;22;20156;-56
2022/05/02 07:04:25;;;;;;;5.05;4.00;;;;;;;14.94;79.40;98366.81;6257109;22;20205;-56
2022/05/02 07:06:59;;;;;;;5.00;4.30;;;;;;;14.88;79.82;98367.34;6264408;22;20163;-56
2022/05/02 07:09:46;;;;;;;5.47;4.15;;;;;;;14.97;80.83;98369.97;6269683;22;20174;-56
2022/05/02 07:12:23;;;;;;;4.47;4.05;;;;;;;15.20;80.24;98374.00;6267676;22;20155;-56
2022/05/02 07:15:04;;;;;;;6.80;4.80;;;;;;;15.24;79.50;98374.56;6269345;22;20132;-57
2022/05/02 07:17:48;;;;;;;6.03;4.72;;;;;;;15.17;79.87;98378.66;6269046;22;20648;-56
2022/05/02 07:20:16;;;;;;;6.00;4.18;;;;;;;15.35;79.76;98379.69;6268971;22;20198;-56
2022/05/02 07:23:10;;;;;;;5.43;4.35;;;;;;;15.40;78.30;98385.31;6257310;22;20148;-56
2022/05/02 07:25:37;;;;;;;5.63;4.30;;;;;;;15.62;76.55;98378.06;6257473;22;20252;-56
2022/05/02 07:28:31;;;;;;;7.60;4.32;;;;;;;15.73;75.28;98375.31;6264663;22;20177;-56
2022/05/02 07:30:57;;;;;;;4.43;3.78;;;;;;;15.70;75.44;98365.19;6269328;22;20148;-56
2022/05/02 07:33:31;;;;;;;4.07;3.53;;;;;;;15.83;74.22;98357.03;6269267;22;20164;-56
2022/05/02 07:36:01;;;;;;;4.10;3.80;;;;;;;15.87;73.64;98355.81;6270182;22;20206;-56
2022/05/02 07:38:30;;;;;;;5.95;3.58;;;;;;;15.65;74.42;98353.50;6271787;22;20137;-56
2022/05/02 07:43:43;;;;;;;8.07;3.70;;;;;;;15.73;72.94;98349.22;6260174;22;20715;-56
2022/05/02 07:46:11;;;;;;;5.28;3.38;;;;;;;15.65;72.35;98340.44;6259071;22;20180;-56
2022/05/02 07:48:41;;;;;;;5.20;3.90;;;;;;;15.66;72.63;98339.47;6264220;22;20144;-56
2022/05/02 07:51:09;;;;;;;3.35;3.08;;;;;;;15.83;70.99;98341.38;6271355;22;20206;-56
2022/05/02 07:53:39;;;;;;;5.30;2.95;;;;;;;15.90;69.75;98340.69;6270972;22;20587;-56
2022/05/02 07:56:07;;;;;;;3.35;3.05;;;;;;;15.83;69.21;98334.41;6269923;22;20530;-56
2022/05/02 07:58:34;;;;;;;4.35;3.30;;;;;;;15.93;69.53;98322.13;6271627;22;20176;-56
2022/05/02 08:01:00;;;;;;;6.55;3.33;;;;;;;16.11;67.66;98324.88;6271219;22;20241;-56
2022/05/02 08:03:27;;;;;;;3.75;2.92;;;;;;;16.32;67.71;98330.72;6268468;22;20722;-56
2022/05/02 08:05:58;;;;;;;3.38;3.13;;;;;;;16.39;63.54;98324.78;6255177;22;20211;-56
2022/05/02 08:08:39;;;;;;;5.05;3.63;;;;;;;16.26;64.41;98311.22;6259591;22;20613;-56
2022/05/02 08:11:13;;;;;;;3.88;2.80;;;;;;;16.00;65.11;98307.59;6270289;22;20190;-56
2022/05/02 08:14:01;;;;;;;3.35;3.05;;;;;;;16.18;65.46;98295.44;6270975;22;20137;-56
2022/05/02 08:16:32;;;;;;;3.60;2.80;;;;;;;16.44;62.40;98286.00;6270637;22;20725;-56
2022/05/02 08:19:27;;;;;;;5.47;2.63;;;;;;;16.57;61.66;98286.50;6271163;22;20583;-56
2022/05/02 08:28:08;;;;;;;3.53;2.70;;;;;;;16.79;60.83;98270.44;6258070;22;20569;-56
2022/05/02 08:30:42;;;;;;;2.42;2.25;;;;;;;17.03;60.05;98278.53;6263406;22;20620;-56
2022/05/02 08:33:12;;;;;;;6.90;2.75;;;;;;;17.07;59.83;98285.09;6269277;22;20223;-56
2022/05/02 08:35:57;;;;;;;4.80;2.60;;;;;;;17.07;59.98;98284.28;6270932;22;20129;-56
2022/05/02 08:38:41;;;;;;;7.20;3.33;;;;;;;17.37;60.08;98289.16;6270850;22;20210;-56
2022/05/02 08:41:59;;;;;;;6.03;3.03;;;;;;;17.53;60.05;98291.94;6271300;22;20546;-56
2022/05/02 08:45:02;;;;;;;3.60;2.70;;;;;;;17.66;58.06;98297.63;6228927;22;20156;-56
2022/05/02 08:48:10;;;;;;;5.55;2.80;;;;;;;17.37;58.66;98286.53;6256527;22;20606;-56
2022/05/02 08:50:54;;;;;;;5.82;3.28;;;;;;;17.42;59.29;98279.91;6208314;22;20235;-56
2022/05/02 08:53:31;;;;;;;4.28;3.08;;;;;;;17.42;58.91;98284.31;6270445;22;20202;-56
2022/05/02 08:56:24;;;;;;;4.45;2.90;;;;;;;17.58;58.63;98279.22;6270403;22;20155;-56
2022/05/02 08:58:55;;;;;;;7.65;3.15;;;;;;;17.90;58.46;98276.84;6270549;22;21015;-56
2022/05/02 09:01:41;;;;;;;3.08;2.63;;;;;;;17.89;58.27;98276.00;6270479;22;20156;-56
2022/05/02 09:04:28;;;;;;;4.32;2.75;;;;;;;18.18;57.47;98278.34;6269847;22;20156;-56
2022/05/02 09:06:56;;;;;;;4.30;3.22;;;;;;;18.33;57.52;98272.38;6265838;22;20198;-56
2022/05/02 09:09:40;;;;;;;4.95;2.60;;;;;;;18.42;57.24;98271.44;6256998;22;20151;-56
2022/05/02 09:12:33;;;;;;;5.32;2.80;;;;;;;18.29;56.52;98272.81;6260162;22;20163;-56
2022/05/02 09:15:11;;;;;;;3.42;2.80;;;;;;;18.53;56.88;98275.59;6270468;22;20129;-56
2022/05/02 09:17:39;;;;;;;3.97;2.80;;;;;;;18.78;56.60;98285.97;6270474;22;20167;-56
2022/05/02 09:20:37;;;;;;;3.90;2.83;;;;;;;18.67;55.72;98288.09;6270486;22;20198;-56
2022/05/02 09:23:05;;;;;;;2.72;2.50;;;;;;;18.52;55.27;98276.53;6261828;22;20162;-56
2022/05/02 09:25:52;;;;;;;3.47;2.90;;;;;;;18.24;57.28;98278.53;6270712;22;20186;-56
2022/05/02 09:28:21;;;;;;;4.97;2.67;;;;;;;18.10;57.04;98288.75;6263655;22;20171;-56
2022/05/02 09:31:01;;;;;;;4.65;2.33;;;;;;;18.03;56.27;98285.94;6256649;22;20154;-56
2022/05/02 09:33:30;;;;;;;3.20;2.90;;;;;;;17.38;57.78;98280.38;6261188;22;20194;-56
2022/05/02 09:36:21;;;;;;;6.00;2.90;;;;;;;17.52;59.06;98274.59;6270206;22;20144;-56
2022/05/02 09:39:11;;;;;;;5.18;3.20;;;;;;;17.93;58.67;98264.28;6270329;22;20139;-56
2022/05/02 09:41:36;;;;;;;4.05;2.72;;;;;;;18.00;57.48;98275.75;6268154;22;20156;-56
2022/05/02 09:50:37;;;;;;;3.20;2.90;;;;;;;18.26;56.29;98260.88;6258612;22;20182;-56
2022/05/02 09:53:22;;;;;;;4.15;2.90;;;;;;;18.60;54.37;98263.50;6255834;22;20156;-56
2022/05/02 09:58:56;;;;;;;4.55;2.60;;;;;;;18.77;52.49;98250.25;6269724;22;20547;-56
2022/05/02 10:01:26;;;;;;;3.55;2.47;;;;;;;18.67;53.68;98244.34;6270144;22;20150;-56
2022/05/02 10:04:12;;;;;;;4.05;2.47;;;;;;;18.68;53.45;98239.91;6270017;22;20144;-56
2022/05/02 10:06:54;;;;;;;2.58;2.38;;;;;;;18.50;53.78;98231.34;6269892;22;20167;-56
2022/05/02 10:09:36;;;;;;;3.83;2.75;;;;;;;18.23;53.07;98226.28;6269766;22;20606;-56
2022/05/02 10:12:23;;;;;;;3.03;2.70;;;;;;;18.35;52.35;98230.28;6255650;22;20152;-56
2022/05/02 10:15:10;;;;;;;3.00;2.30;;;;;;;18.23;52.18;98213.19;6258544;22;20194;-56
2022/05/02 10:17:47;;;;;;;3.60;2.90;;;;;;;18.03;54.12;98211.78;6269207;22;20176;-56
2022/05/02 10:20:18;;;;;;;2.10;2.00;;;;;;;18.01;54.05;98214.56;6269950;22;20143;-56
2022/05/02 10:23:03;;;;;;;4.25;2.60;;;;;;;18.01;54.05;98208.53;6269607;22;20223;-56
2022/05/02 10:25:35;;;;;;;4.90;2.70;;;;;;;17.65;54.64;98212.22;6269666;22;20510;-56
2022/05/02 10:28:21;;;;;;;3.03;2.80;;;;;;;17.68;55.07;98206.69;6270140;22;20153;-56
2022/05/02 10:30:50;;;;;;;3.28;2.58;;;;;;;17.60;53.78;98204.81;6267154;22;20143;-56
2022/05/02 10:33:24;;;;;;;6.80;2.85;;;;;;;17.66;54.05;98200.78;6255947;22;20152;-56
2022/05/02 10:35:52;;;;;;;4.38;2.65;;;;;;;17.64;54.08;98200.94;6258767;22;20205;-56
2022/05/02 10:38:29;;;;;;;5.45;2.55;;;;;;;17.74;53.79;98196.44;6267635;22;20231;-56
2022/05/02 10:41:21;;;;;;;2.22;2.13;;;;;;;17.72;52.63;98187.91;6269539;22;20569;-56
2022/05/02 10:43:53;;;;;;;5.38;2.60;;;;;;;17.74;53.05;98200.84;6237572;22;20156;-56
2022/05/02 10:46:21;;;;;;;2.60;2.40;;;;;;;17.75;53.69;98186.75;6269508;22;20241;-56
2022/05/02 10:48:55;;;;;;;3.33;2.75;;;;;;;17.62;54.39;98189.81;6269439;22;20653;-56
2022/05/02 10:51:40;;;;;;;4.43;3.17;;;;;;;17.61;54.38;98189.97;6269430;22;20609;-56
2022/05/02 10:54:19;;;;;;;5.88;2.65;;;;;;;17.65;54.77;98196.50;6254881;22;20148;-56
2022/05/02 10:56:53;;;;;;;3.28;2.72;;;;;;;17.57;54.18;98189.44;6257961;22;20132;-56
2022/05/02 10:59:22;;;;;;;2.88;2.05;;;;;;;17.54;52.55;98183.72;6267759;22;20135;-56
2022/05/02 11:02:18;;;;;;;2.65;2.45;;;;;;;17.50;53.57;98187.59;6268888;22;20159;-56
2022/05/02 11:04:53;;;;;;;4.07;2.38;;;;;;;17.50;54.33;98187.59;6269368;22;20144;-56
2022/05/02 11:07:52;;;;;;;2.55;2.25;;;;;;;17.38;54.73;98173.94;6269576;22;20140;-56
2022/05/02 11:10:20;;;;;;;8.68;2.90;;;;;;;17.31;55.45;98174.69;6267542;22;20144;-56
2022/05/02 11:12:51;;;;;;;4.15;2.67;;;;;;;17.09;55.62;98165.50;6267304;22;20148;-56
2022/05/02 11:15:18;;;;;;;3.72;2.90;;;;;;;17.21;55.40;98174.75;6255300;22;20613;-56
2022/05/02 11:18:08;;;;;;;2.53;2.10;;;;;;;17.28;55.46;98170.59;6255990;22;20514;-56
2022/05/02 11:20:52;;;;;;;3.92;2.50;;;;;;;17.40;55.14;98168.56;6269233;22;20189;-56
2022/05/02 11:23:41;;;;;;;2.67;2.47;;;;;;;17.34;55.22;98169.13;6268020;22;20241;-56
2022/05/02 11:26:17;;;;;;;4.28;2.67;;;;;;;17.26;55.38;98169.09;6267422;22;20199;-56
2022/05/02 11:29:22;;;;;;;5.22;2.50;;;;;;;17.17;55.34;98168.19;6269207;22;20593;-56
2022/05/02 11:31:58;;;;;;;5.05;2.65;;;;;;;17.27;55.85;98166.31;6269251;22;20128;-56
2022/05/02 11:35:00;;;;;;;3.28;2.10;;;;;;;17.25;55.68;98167.44;6262571;22;20167;-56
2022/05/02 11:37:37;;;;;;;2.70;2.50;;;;;;;17.20;56.21;98165.28;6256421;22;20597;-56
2022/05/02 11:40:12;;;;;;;2.60;2.30;;;;;;;17.26;56.05;98159.44;6262229;22;20561;-56
2022/05/02 11:42:47;;;;;;;3.05;2.35;;;;;;;17.17;57.14;98159.53;6269438;22;20549;-56
2022/05/02 11:45:14;;;;;;;2.40;2.20;;;;;;;17.24;57.68;98163.16;6269233;22;20186;-56
2022/05/02 11:47:53;;;;;;;3.28;2.53;;;;;;;17.37;55.28;98161.81;6269172;22;20152;-56
2022/05/02 11:50:25;;;;;;;5.90;2.70;;;;;;;17.50;55.43;98171.91;6264641;22;20556;-56
2022/05/02 11:52:56;;;;;;;3.20;2.85;;;;;;;17.59;55.39;98170.97;6268421;22;20219;-56
2022/05/02 11:55:30;;;;;;;3.08;2.40;;;;;;;17.55;53.63;98182.72;6263390;22;20649;-56
2022/05/02 11:58:09;;;;;;;3.97;2.60;;;;;;;17.56;53.91;98176.53;6256355;22;20508;-56
2022/05/02 12:00:37;;;;;;;4.20;3.00;;;;;;;17.56;53.93;98182.56;6259459;22;20144;-56
2022/05/02 12:03:14;;;;;;;5.93;3.35;;;;;;;17.47;54.52;98185.28;6268979;22;20564;-56
2022/05/02 12:05:46;;;;;;;3.40;3.10;;;;;;;17.32;54.57;98178.94;6269023;22;20625;-56
2022/05/02 12:08:33;;;;;;;4.75;3.35;;;;;;;17.42;54.15;98179.66;6269290;22;20924;-56
2022/05/02 12:11:10;;;;;;;3.28;2.97;;;;;;;17.45;53.59;98176.78;6269163;22;20190;-56
2022/05/02 12:13:47;;;;;;;3.05;2.80;;;;;;;17.21;53.08;98158.25;6269728;22;20494;-56
2022/05/02 12:16:15;;;;;;;2.90;2.70;;;;;;;17.23;53.30;98154.53;6264123;22;20221;-56
2022/05/02 12:18:45;;;;;;;3.38;3.00;;;;;;;17.13;54.57;98158.22;6255292;22;20159;-56
2022/05/02 12:21:24;;;;;;;3.35;3.08;;;;;;;17.24;54.72;98160.56;6257886;22;20148;-56
2022/05/02 12:23:52;;;;;;;4.47;3.03;;;;;;;17.26;53.84;98153.41;6270469;22;20526;-56
2022/05/02 12:26:20;;;;;;;5.50;2.67;;;;;;;17.16;52.77;98156.09;6270843;22;20206;-56